createdAt,value
2023-05-15T00:02:27.873Z,6.00
2023-05-15T00:04:54.687Z,5.80
2023-05-15T00:07:21.433Z,6.27
2023-05-15T00:09:48.107Z,7.23
2023-05-15T00:12:15.436Z,6.03
2023-05-15T00:14:42.059Z,7.10
2023-05-15T00:17:09.807Z,5.80
2023-05-15T00:19:36.463Z,6.03
2023-05-15T00:22:03.044Z,6.63
2023-05-15T00:24:29.792Z,9.27
2023-05-15T00:26:56.455Z,7.00
2023-05-15T00:29:23.883Z,9.97
2023-05-15T00:31:50.792Z,7.33
2023-05-15T00:34:17.602Z,6.37
2023-05-15T00:36:44.732Z,7.40
2023-05-15T00:39:11.587Z,6.60
2023-05-15T00:41:40.635Z,7.53
2023-05-15T00:44:09.607Z,7.93
2023-05-15T00:46:37.668Z,7.13
2023-05-15T00:49:06.671Z,10.37
2023-05-15T00:51:33.309Z,7.80
2023-05-15T00:53:59.983Z,6.53
2023-05-15T00:56:30.352Z,7.47
2023-05-15T00:58:59.626Z,8.03
2023-05-15T01:01:26.539Z,10.50
2023-05-15T01:03:53.329Z,11.00
2023-05-15T01:06:20.625Z,8.27
2023-05-15T01:08:49.245Z,8.07
2023-05-15T01:11:17.368Z,8.90
2023-05-15T01:13:45.910Z,7.57
2023-05-15T01:16:12.704Z,6.80
2023-05-15T01:18:39.425Z,7.63
2023-05-15T01:21:06.255Z,9.87
2023-05-15T01:23:38.992Z,8.43
2023-05-15T01:26:11.567Z,8.00
2023-05-15T01:28:48.423Z,10.27
2023-05-15T01:31:19.314Z,8.90
2023-05-15T01:33:50.348Z,8.40
2023-05-15T01:36:56.595Z,9.00
2023-05-15T01:39:27.771Z,8.00
2023-05-15T01:42:08.133Z,10.23
2023-05-15T01:44:38.436Z,9.73
2023-05-15T01:47:13.593Z,8.90
2023-05-15T01:49:43.022Z,9.80
2023-05-15T01:52:27.809Z,8.53
2023-05-15T01:54:55.323Z,7.63
2023-05-15T01:57:23.301Z,10.20
2023-05-15T01:59:51.226Z,9.07
2023-05-15T02:02:19.449Z,7.03
2023-05-15T02:04:48.022Z,10.50
2023-05-15T02:07:15.468Z,7.00
2023-05-15T02:09:43.217Z,7.80
2023-05-15T02:12:10.811Z,8.07
2023-05-15T02:14:39.353Z,6.80
2023-05-15T02:17:06.454Z,7.50
2023-05-15T02:19:33.237Z,8.27
2023-05-15T02:22:05.567Z,6.93
2023-05-15T02:24:33.407Z,8.43
2023-05-15T02:27:22.474Z,10.67
2023-05-15T02:29:52.164Z,8.43
2023-05-15T02:32:33.827Z,7.77
2023-05-15T02:35:09.039Z,7.97
2023-05-15T02:37:40.024Z,9.67
2023-05-15T02:40:11.380Z,9.67
2023-05-15T02:42:40.342Z,7.53
2023-05-15T02:45:09.562Z,9.63
2023-05-15T02:47:37.006Z,9.17
2023-05-15T02:50:05.042Z,8.13
2023-05-15T02:52:34.822Z,10.20
2023-05-15T02:55:01.704Z,9.13
2023-05-15T02:57:28.500Z,9.63
2023-05-15T02:59:57.170Z,9.50
2023-05-15T03:02:24.039Z,9.33
2023-05-15T03:04:50.859Z,9.60
2023-05-15T03:07:17.471Z,10.53
2023-05-15T03:09:44.158Z,9.90
2023-05-15T03:12:11.247Z,8.87
2023-05-15T03:14:37.983Z,8.37
2023-05-15T03:17:05.186Z,10.60
2023-05-15T03:19:31.968Z,8.73
2023-05-15T03:21:58.675Z,9.77
2023-05-15T03:24:25.449Z,9.57
2023-05-15T03:26:52.111Z,10.10
2023-05-15T03:29:19.898Z,10.07
2023-05-15T03:31:46.616Z,9.47
2023-05-15T03:34:13.411Z,9.47
2023-05-15T03:36:41.011Z,9.37
2023-05-15T03:39:07.708Z,9.47
2023-05-15T03:41:34.376Z,8.77
2023-05-15T03:44:01.158Z,9.20
2023-05-15T03:46:27.836Z,8.87
2023-05-15T03:48:55.861Z,12.70
2023-05-15T03:51:24.140Z,10.20
2023-05-15T03:53:54.143Z,9.20
2023-05-15T03:56:23.177Z,9.83
2023-05-15T03:58:49.901Z,11.20
2023-05-15T04:01:16.575Z,9.60
2023-05-15T04:03:43.376Z,10.07
2023-05-15T04:06:10.143Z,10.33
2023-05-15T04:08:36.786Z,11.20
2023-05-15T04:11:03.447Z,10.93
2023-05-15T04:13:30.072Z,11.83
2023-05-15T04:15:56.727Z,12.47
2023-05-15T04:18:23.448Z,11.57
2023-05-15T04:20:50.508Z,12.57
2023-05-15T04:23:17.112Z,13.30
2023-05-15T04:25:46.563Z,12.00
2023-05-15T04:28:14.037Z,12.10
2023-05-15T04:30:40.714Z,12.77
2023-05-15T04:33:07.863Z,12.60
2023-05-15T04:35:34.626Z,13.80
2023-05-15T04:38:01.906Z,10.83
2023-05-15T04:40:29.270Z,14.40
2023-05-15T04:42:56.120Z,12.80
2023-05-15T04:45:24.903Z,12.53
2023-05-15T04:47:51.898Z,12.57
2023-05-15T04:50:18.650Z,11.83
2023-05-15T04:52:45.648Z,13.00
2023-05-15T04:55:12.334Z,15.90
2023-05-15T04:57:38.986Z,12.50
2023-05-15T05:00:11.873Z,10.70
2023-05-15T05:02:40.007Z,11.83
2023-05-15T05:05:07.563Z,12.13
2023-05-15T05:07:34.803Z,14.10
2023-05-15T05:10:02.166Z,11.00
2023-05-15T05:12:28.930Z,9.23
2023-05-15T05:14:56.675Z,9.97
2023-05-15T05:17:23.456Z,9.30
2023-05-15T05:19:50.287Z,8.60
2023-05-15T05:22:16.985Z,9.97
2023-05-15T05:24:43.646Z,10.67
2023-05-15T05:27:10.446Z,10.60
2023-05-15T05:29:37.137Z,11.17
2023-05-15T05:32:03.996Z,10.73
2023-05-15T05:34:30.752Z,10.87
2023-05-15T05:36:57.474Z,10.07
2023-05-15T05:39:24.125Z,10.20
2023-05-15T05:41:50.876Z,9.60
2023-05-15T05:44:17.674Z,8.73
2023-05-15T05:46:45.445Z,10.63
2023-05-15T05:49:12.188Z,11.03
2023-05-15T05:51:39.198Z,10.33
2023-05-15T05:54:05.909Z,7.97
2023-05-15T05:56:32.715Z,8.50
2023-05-15T05:59:01.771Z,8.57
2023-05-15T06:01:28.616Z,8.13
2023-05-15T06:03:55.936Z,7.70
2023-05-15T06:06:22.914Z,9.70
2023-05-15T06:08:49.630Z,7.90
2023-05-15T06:11:16.415Z,9.07
2023-05-15T06:13:43.553Z,9.20
2023-05-15T06:16:10.463Z,7.57
2023-05-15T06:18:37.346Z,7.37
2023-05-15T06:21:04.093Z,7.83
2023-05-15T06:23:31.074Z,8.20
2023-05-15T06:25:57.911Z,7.90
2023-05-15T06:28:24.572Z,7.43
2023-05-15T06:30:51.421Z,6.90
2023-05-15T06:33:18.172Z,8.00
2023-05-15T06:35:44.801Z,7.93
2023-05-15T06:38:11.507Z,8.03
2023-05-15T06:40:38.163Z,8.10
2023-05-15T06:43:04.786Z,8.60
2023-05-15T06:45:31.565Z,7.27
2023-05-15T06:48:00.787Z,7.03
2023-05-15T06:50:28.403Z,6.03
2023-05-15T06:52:55.129Z,6.43
2023-05-15T06:55:21.792Z,7.27
2023-05-15T06:57:48.396Z,6.97
2023-05-15T07:00:15.588Z,7.00
2023-05-15T07:02:43.694Z,7.20
2023-05-15T07:05:11.358Z,7.30
2023-05-15T07:07:38.145Z,7.27
2023-05-15T07:10:05.500Z,7.30
2023-05-15T07:12:33.062Z,8.13
2023-05-15T07:14:59.702Z,8.77
2023-05-15T07:17:26.499Z,6.90
2023-05-15T07:19:53.204Z,7.87
2023-05-15T07:22:19.866Z,7.13
2023-05-15T07:24:47.562Z,7.27
2023-05-15T07:27:14.420Z,7.77
2023-05-15T07:29:41.047Z,6.90
2023-05-15T07:32:08.023Z,11.00
2023-05-15T07:34:34.843Z,7.33
2023-05-15T07:37:01.473Z,9.23
2023-05-15T07:39:28.152Z,6.57
2023-05-15T07:41:54.828Z,8.23
2023-05-15T07:44:21.498Z,7.20
2023-05-15T07:46:48.225Z,8.57
2023-05-15T07:49:14.875Z,6.50
2023-05-15T07:51:42.611Z,7.43
2023-05-15T07:54:09.241Z,6.37
2023-05-15T07:56:36.042Z,5.13
2023-05-15T07:59:02.777Z,4.93
2023-05-15T08:01:30.760Z,5.60
2023-05-15T08:03:59.311Z,8.87
2023-05-15T08:06:26.140Z,6.83
2023-05-15T08:08:52.848Z,6.87
2023-05-15T08:11:19.557Z,6.00
2023-05-15T08:13:46.269Z,7.93
2023-05-15T08:16:13.026Z,5.53
2023-05-15T08:18:39.777Z,5.35
2023-05-15T08:21:06.625Z,5.43
2023-05-15T08:23:33.289Z,5.25
2023-05-15T08:25:59.869Z,6.65
2023-05-15T08:28:26.503Z,4.88
2023-05-15T08:30:53.240Z,4.97
2023-05-15T08:33:19.960Z,6.85
2023-05-15T08:35:46.612Z,5.50
2023-05-15T08:38:13.420Z,6.13
2023-05-15T08:40:45.235Z,7.70
2023-05-15T08:43:17.612Z,5.30
2023-05-15T08:45:44.401Z,6.28
2023-05-15T08:48:17.283Z,8.38
2023-05-15T08:50:44.522Z,7.70
2023-05-15T08:53:13.170Z,7.57
2023-05-15T08:55:40.557Z,8.13
2023-05-15T08:58:09.299Z,9.32
2023-05-15T09:00:36.135Z,8.60
2023-05-15T09:03:03.070Z,7.82
2023-05-15T09:05:30.376Z,7.90
2023-05-15T09:08:01.942Z,9.50
2023-05-15T09:10:30.501Z,8.70
2023-05-15T09:12:59.240Z,11.52
2023-05-15T09:15:26.690Z,10.63
2023-05-15T09:17:54.633Z,10.63
2023-05-15T09:20:28.634Z,11.88
2023-05-15T09:22:56.485Z,10.18
2023-05-15T09:25:38.174Z,12.27
2023-05-15T09:28:06.372Z,10.80
2023-05-15T09:30:34.665Z,10.70
2023-05-15T09:33:03.599Z,13.48
2023-05-15T09:35:38.447Z,10.38
2023-05-15T09:38:12.448Z,9.63
2023-05-15T09:40:40.815Z,9.52
2023-05-15T09:43:10.897Z,11.27
2023-05-15T09:45:37.769Z,12.48
2023-05-15T09:48:06.502Z,9.23
2023-05-15T09:50:38.526Z,12.10
2023-05-15T09:53:05.941Z,10.43
2023-05-15T09:55:34.620Z,12.65
2023-05-15T09:58:15.433Z,14.32
2023-05-15T10:00:48.051Z,4.95
2023-05-15T10:03:18.008Z,7.50
2023-05-15T10:05:45.053Z,12.40
2023-05-15T10:08:12.652Z,13.80
2023-05-15T10:10:39.773Z,12.90
2023-05-15T10:13:08.375Z,10.07
2023-05-15T10:15:35.471Z,9.47
2023-05-15T10:18:04.875Z,7.30
2023-05-15T10:20:35.725Z,5.40
2023-05-15T10:23:05.662Z,5.07
2023-05-15T10:25:42.003Z,5.70
2023-05-15T10:28:11.254Z,4.30
2023-05-15T10:30:38.743Z,5.27
2023-05-15T10:33:07.151Z,5.30
2023-05-15T10:35:35.012Z,4.40
2023-05-15T10:38:05.489Z,4.67
2023-05-15T10:40:33.716Z,4.80
2023-05-15T10:43:03.167Z,4.47
2023-05-15T10:45:31.432Z,6.63
2023-05-15T10:47:59.536Z,5.63
2023-05-15T10:50:27.466Z,6.67
2023-05-15T10:52:55.741Z,7.97
2023-05-15T10:55:23.100Z,5.43
2023-05-15T10:57:50.031Z,4.90
2023-05-15T11:00:28.824Z,3.70
2023-05-15T11:02:58.579Z,8.13
2023-05-15T11:05:26.190Z,6.87
2023-05-15T11:08:25.922Z,5.60
2023-05-15T11:10:53.865Z,4.70
2023-05-15T11:13:21.336Z,5.80
2023-05-15T11:15:49.200Z,4.93
2023-05-15T11:18:16.460Z,6.20
2023-05-15T11:20:52.251Z,7.80
2023-05-15T11:23:23.122Z,6.37
2023-05-15T11:25:54.856Z,6.87
2023-05-15T11:28:22.761Z,7.57
2023-05-15T11:30:52.152Z,8.20
2023-05-15T11:33:20.737Z,6.47
2023-05-15T11:35:48.449Z,7.13
2023-05-15T11:38:25.341Z,8.20
2023-05-15T11:40:55.780Z,8.93
2023-05-15T11:43:24.731Z,8.40
2023-05-15T11:46:08.448Z,9.07
2023-05-15T11:48:48.310Z,9.73
2023-05-15T11:51:27.523Z,15.10
2023-05-15T11:53:55.848Z,12.97
2023-05-15T11:56:29.868Z,11.50
2023-05-15T11:59:02.253Z,14.00
2023-05-15T12:01:39.059Z,14.95
2023-05-15T12:04:12.880Z,13.63
2023-05-15T12:06:39.750Z,13.45
2023-05-15T12:09:07.560Z,14.50
2023-05-15T12:11:34.224Z,12.40
2023-05-15T12:14:00.925Z,13.50
2023-05-15T12:16:28.491Z,14.53
2023-05-15T12:18:58.186Z,13.90
2023-05-15T12:21:27.229Z,15.20
2023-05-15T12:24:07.188Z,13.93
2023-05-15T12:26:35.002Z,13.17
2023-05-15T12:29:02.083Z,11.97
2023-05-15T12:31:29.142Z,10.33
2023-05-15T12:33:56.722Z,12.30
2023-05-15T12:36:23.454Z,10.30
2023-05-15T12:38:50.559Z,12.17
2023-05-15T12:41:17.458Z,12.07
2023-05-15T12:43:44.164Z,11.00
2023-05-15T12:46:13.375Z,11.47
2023-05-15T12:48:40.499Z,11.27
2023-05-15T12:51:08.112Z,10.37
2023-05-15T12:53:34.969Z,11.30
2023-05-15T12:56:02.144Z,11.83
2023-05-15T12:58:28.958Z,8.20
2023-05-15T13:00:56.916Z,6.03
2023-05-15T13:03:25.064Z,9.03
2023-05-15T13:05:52.343Z,8.73
2023-05-15T13:08:19.425Z,12.17
2023-05-15T13:10:47.679Z,9.37
2023-05-15T13:13:16.488Z,9.27
2023-05-15T13:15:45.103Z,10.70
2023-05-15T13:18:14.159Z,9.50
2023-05-15T13:20:46.355Z,9.37
2023-05-15T13:23:16.035Z,8.50
2023-05-15T13:25:43.552Z,7.73
2023-05-15T13:28:11.553Z,6.40
2023-05-15T13:30:41.587Z,6.83
2023-05-15T13:33:13.007Z,7.97
2023-05-15T13:35:41.107Z,7.43
2023-05-15T13:38:11.170Z,9.13
2023-05-15T13:40:38.912Z,5.67
2023-05-15T13:43:08.649Z,8.03
2023-05-15T13:45:35.656Z,6.97
2023-05-15T13:48:02.562Z,6.93
2023-05-15T13:50:29.245Z,6.93
2023-05-15T13:52:56.337Z,6.43
2023-05-15T13:55:23.491Z,8.73
2023-05-15T13:57:51.211Z,9.47
2023-05-15T14:00:18.613Z,7.40
2023-05-15T14:02:45.892Z,5.77
2023-05-15T14:05:14.428Z,7.67
2023-05-15T14:07:41.442Z,7.20
2023-05-15T14:10:08.534Z,6.20
2023-05-15T14:12:35.975Z,8.37
2023-05-15T14:15:02.788Z,7.17
2023-05-15T14:17:29.487Z,7.03
2023-05-15T14:19:56.246Z,8.70
2023-05-15T14:22:24.838Z,5.80
2023-05-15T14:24:52.802Z,6.47
2023-05-15T14:27:19.693Z,8.47
2023-05-15T14:29:47.249Z,6.73
2023-05-15T14:32:14.016Z,6.83
2023-05-15T14:34:40.728Z,6.03
2023-05-15T14:37:07.402Z,4.93
2023-05-15T14:39:35.245Z,6.13
2023-05-15T14:42:02.021Z,5.07
2023-05-15T14:44:28.649Z,7.63
2023-05-15T14:47:12.743Z,4.50
2023-05-15T14:49:39.757Z,5.07
2023-05-15T14:52:09.149Z,4.83
2023-05-15T14:54:36.446Z,6.63
2023-05-15T14:57:03.874Z,4.83
2023-05-15T14:59:31.016Z,5.70
2023-05-15T15:01:58.010Z,4.07
2023-05-15T15:04:26.604Z,5.43
2023-05-15T15:06:56.834Z,6.50
2023-05-15T15:09:24.169Z,5.50
2023-05-15T15:11:51.327Z,4.60
2023-05-15T15:14:18.114Z,5.60
2023-05-15T15:16:45.963Z,4.20
2023-05-15T15:19:13.484Z,4.87
2023-05-15T15:21:40.358Z,5.53
2023-05-15T15:24:07.515Z,4.77
2023-05-15T15:26:34.183Z,6.07
2023-05-15T15:29:01.114Z,4.47
2023-05-15T15:31:29.511Z,3.90
2023-05-15T15:33:57.488Z,4.90
2023-05-15T15:36:24.916Z,4.43
2023-05-15T15:38:51.832Z,4.17
2023-05-15T15:41:18.547Z,3.80
2023-05-15T15:43:45.300Z,4.70
2023-05-15T15:46:12.000Z,4.40
2023-05-15T15:48:38.663Z,5.50
2023-05-15T15:51:05.634Z,3.23
2023-05-15T15:53:34.341Z,4.63
2023-05-15T15:56:01.537Z,3.50
2023-05-15T15:58:29.300Z,5.87
2023-05-15T16:00:56.626Z,5.37
2023-05-15T16:03:23.379Z,4.67
2023-05-15T16:05:50.120Z,3.90
2023-05-15T16:08:16.738Z,5.47
2023-05-15T16:10:44.442Z,4.43
2023-05-15T16:13:11.034Z,4.83
2023-05-15T16:15:37.688Z,5.53
2023-05-15T16:18:04.620Z,5.37
2023-05-15T16:20:32.329Z,6.60
2023-05-15T16:22:59.543Z,3.93
2023-05-15T16:25:26.170Z,4.97
2023-05-15T16:27:52.918Z,4.70
2023-05-15T16:30:19.688Z,6.33
2023-05-15T16:32:46.456Z,6.07
2023-05-15T16:35:13.150Z,5.07
2023-05-15T16:37:39.849Z,6.37
2023-05-15T16:40:07.309Z,4.73
2023-05-15T16:42:37.976Z,4.73
2023-05-15T16:45:06.044Z,4.83
2023-05-15T16:47:33.109Z,5.00
2023-05-15T16:49:59.861Z,5.37
2023-05-15T16:52:26.587Z,6.37
2023-05-15T16:54:53.556Z,5.97
2023-05-15T16:57:20.346Z,6.50
2023-05-15T16:59:47.921Z,8.23
2023-05-15T17:02:14.748Z,5.73
2023-05-15T17:04:41.409Z,5.33
2023-05-15T17:07:09.162Z,5.00
2023-05-15T17:09:38.326Z,4.80
2023-05-15T17:12:05.657Z,4.57
2023-05-15T17:14:32.333Z,4.53
2023-05-15T17:16:58.945Z,4.70
2023-05-15T17:19:25.666Z,4.87
2023-05-15T17:21:52.354Z,7.07
2023-05-15T17:24:19.014Z,6.27
2023-05-15T17:26:45.658Z,5.23
2023-05-15T17:29:12.400Z,8.37
2023-05-15T17:31:39.160Z,8.80
2023-05-15T17:34:05.785Z,6.13
2023-05-15T17:36:33.642Z,6.63
2023-05-15T17:39:00.577Z,6.43
2023-05-15T17:41:27.246Z,5.67
2023-05-15T17:43:53.989Z,7.47
2023-05-15T17:46:20.961Z,6.03
2023-05-15T17:48:47.763Z,7.73
2023-05-15T17:51:14.451Z,7.70
2023-05-15T17:53:41.085Z,7.43
2023-05-15T17:56:08.186Z,8.00
2023-05-15T17:58:34.815Z,7.20
2023-05-15T18:01:02.566Z,5.17
2023-05-15T18:03:29.541Z,6.87
2023-05-15T18:05:56.168Z,7.87
2023-05-15T18:08:22.907Z,7.33
2023-05-15T18:10:49.540Z,6.77
2023-05-15T18:13:16.338Z,8.50
2023-05-15T18:15:43.193Z,8.20
2023-05-15T18:18:10.048Z,5.40
2023-05-15T18:20:36.690Z,21.57
2023-05-15T18:23:03.316Z,9.73
2023-05-15T18:25:30.558Z,7.03
2023-05-15T18:27:57.202Z,7.23
2023-05-15T18:30:24.215Z,8.43
2023-05-15T18:32:50.944Z,8.67
2023-05-15T18:35:17.779Z,10.03
2023-05-15T18:37:44.434Z,8.50
2023-05-15T18:40:11.392Z,11.97
2023-05-15T18:42:38.146Z,7.77
2023-05-15T18:45:05.821Z,9.00
2023-05-15T18:47:32.542Z,10.27
2023-05-15T18:49:59.314Z,10.27
2023-05-15T18:52:26.912Z,10.37
2023-05-15T18:54:54.166Z,11.03
2023-05-15T18:57:21.037Z,10.97
2023-05-15T18:59:48.085Z,10.13
2023-05-15T19:02:14.941Z,12.80
2023-05-15T19:04:41.631Z,10.27
2023-05-15T19:07:08.337Z,12.57
2023-05-15T19:09:35.392Z,11.70
2023-05-15T19:12:02.877Z,14.30
2023-05-15T19:14:29.620Z,12.73
2023-05-15T19:16:56.427Z,12.33
2023-05-15T19:19:23.400Z,11.27
2023-05-15T19:21:51.821Z,13.23
2023-05-15T19:24:20.453Z,10.70
2023-05-15T19:26:47.157Z,9.87
2023-05-15T19:29:13.857Z,6.30
2023-05-15T19:31:40.676Z,5.77
2023-05-15T19:34:07.397Z,4.70
2023-05-15T19:36:34.095Z,7.33
2023-05-15T19:39:00.745Z,8.60
2023-05-15T19:41:27.426Z,13.67
2023-05-15T19:43:54.066Z,7.57
2023-05-15T19:46:20.888Z,7.53
2023-05-15T19:48:47.689Z,8.07
2023-05-15T19:51:14.328Z,9.07
2023-05-15T19:53:41.421Z,10.33
2023-05-15T19:56:08.286Z,9.83
2023-05-15T19:58:35.225Z,10.03
2023-05-15T20:01:01.929Z,11.03
2023-05-15T20:03:33.209Z,9.97
2023-05-15T20:06:01.387Z,9.03
2023-05-15T20:08:28.673Z,10.30
2023-05-15T20:10:55.908Z,9.17
2023-05-15T20:13:23.564Z,9.87
2023-05-15T20:15:57.608Z,9.83
2023-05-15T20:18:25.389Z,11.23
2023-05-15T20:20:52.996Z,8.80
2023-05-15T20:23:20.452Z,8.83
2023-05-15T20:25:47.800Z,9.77
2023-05-15T20:28:14.449Z,10.67
2023-05-15T20:30:41.555Z,8.87
2023-05-15T20:33:08.320Z,8.87
2023-05-15T20:35:35.212Z,9.67
2023-05-15T20:38:03.249Z,10.17
2023-05-15T20:40:30.937Z,10.73
2023-05-15T20:42:57.716Z,10.80
2023-05-15T20:45:24.711Z,10.47
2023-05-15T20:47:51.418Z,8.57
2023-05-15T20:50:18.283Z,10.23
2023-05-15T20:52:46.165Z,10.47
2023-05-15T20:55:19.378Z,8.67
2023-05-15T20:57:48.147Z,11.07
2023-05-15T21:00:16.420Z,8.13
2023-05-15T21:02:44.177Z,10.67
2023-05-15T21:05:10.905Z,11.97
2023-05-15T21:07:37.696Z,14.30
2023-05-15T21:10:04.950Z,16.50
2023-05-15T21:12:34.885Z,18.73
2023-05-15T21:15:02.089Z,18.73
2023-05-15T21:17:28.852Z,24.83
2023-05-15T21:19:57.515Z,26.37
2023-05-15T21:22:24.758Z,25.03
2023-05-15T21:24:51.702Z,23.27
2023-05-15T21:27:18.447Z,27.30
2023-05-15T21:29:45.281Z,29.37
2023-05-15T21:32:11.911Z,29.87
2023-05-15T21:34:39.492Z,28.10
2023-05-15T21:37:06.112Z,32.87
2023-05-15T21:39:32.734Z,31.97
2023-05-15T21:41:59.326Z,33.17
2023-05-15T21:44:26.002Z,33.57
2023-05-15T21:46:52.696Z,34.53
2023-05-15T21:49:19.439Z,28.93
2023-05-15T21:51:46.608Z,33.60
2023-05-15T21:54:13.539Z,31.57
2023-05-15T21:56:41.069Z,32.63
2023-05-15T21:59:07.774Z,31.87
2023-05-15T22:01:34.546Z,30.50
2023-05-15T22:04:01.366Z,32.00
2023-05-15T22:06:28.082Z,33.83
2023-05-15T22:08:55.178Z,32.10
2023-05-15T22:11:21.810Z,31.87
2023-05-15T22:13:48.505Z,29.87
2023-05-15T22:16:15.912Z,30.67
2023-05-15T22:18:44.839Z,32.33
2023-05-15T22:21:11.657Z,34.23
2023-05-15T22:23:38.359Z,31.67
2023-05-15T22:26:05.062Z,33.97
2023-05-15T22:28:31.716Z,32.53
2023-05-15T22:30:58.327Z,31.77
2023-05-15T22:33:25.051Z,30.93
2023-05-15T22:35:52.723Z,30.23
2023-05-15T22:38:20.086Z,33.13
2023-05-15T22:40:53.807Z,30.80
2023-05-15T22:43:22.073Z,30.37
2023-05-15T22:45:48.736Z,31.93
2023-05-15T22:48:15.656Z,29.60
2023-05-15T22:50:43.719Z,30.50
2023-05-15T22:53:10.520Z,30.97
2023-05-15T22:55:37.242Z,30.47
2023-05-15T22:58:04.122Z,30.00
2023-05-15T23:00:31.302Z,29.50
2023-05-15T23:02:58.288Z,25.00
2023-05-15T23:05:25.831Z,23.93
2023-05-15T23:07:52.674Z,25.00
2023-05-15T23:10:19.492Z,23.33
2023-05-15T23:12:46.267Z,24.17
2023-05-15T23:15:13.012Z,22.80
2023-05-15T23:17:40.338Z,25.73
2023-05-15T23:20:10.470Z,23.73
2023-05-15T23:22:37.413Z,27.73
2023-05-15T23:25:04.888Z,24.23
2023-05-15T23:27:31.741Z,24.00
2023-05-15T23:29:58.726Z,22.93
2023-05-15T23:32:25.371Z,23.17
2023-05-15T23:34:52.919Z,20.17
2023-05-15T23:37:19.639Z,21.07
2023-05-15T23:39:46.296Z,19.23
2023-05-15T23:42:13.475Z,20.87
2023-05-15T23:44:40.132Z,21.37
2023-05-15T23:47:06.983Z,17.00
2023-05-15T23:49:33.727Z,17.43
2023-05-15T23:52:00.508Z,17.50
2023-05-15T23:54:27.877Z,17.00
2023-05-15T23:56:54.838Z,15.90
2023-05-15T23:59:21.692Z,17.63
